Latest Weather Observations for kunanyi / Mount Wellington

IDT60801

Issued at 5:11 pm EDT Tuesday 26 March 2019 (issued every 10 minutes, with the page automatically refreshed every 10 minutes)

About weather observations | Map of weather stations | Latest weather observations for TAS | Other Formats
Station Details ID: 094087 Name: KUNANYI (MOUNT WELLINGTON PINNACLE) Lat: -42.90 Lon: 147.24 Height: 1260.47 m
Data from the previous 72 hours. | See also: Recent months at kunanyi / Mount Wellington
Date/Time
EDT
Temp
°C
App
Temp
°C
Dew
Point
°C
Rel
Hum
%
Delta-T
°C
Wind Press
QNH
hPa
Press
MSL
hPa
Rain since
9am
mm
Dir  Spd
km/h
Gust
km/h
Spd
kts
Gust
kts
26/05:02pm 2.7 -10.1 0.4 85 0.9 WSW 57 78 31 42 - - 0.2
26/05:00pm 2.6 -10.5 0.5 86 0.9 WSW 59 78 32 42 - - 0.2
26/04:52pm 2.8 -9.8 0.0 82 1.1 WSW 56 76 30 41 - - 0.2
26/04:37pm 3.7 -5.7 0.1 77 1.5 WSW 39 61 21 33 - - 0.2
26/04:30pm 4.1 -5.2 0.4 77 1.5 WSW 39 61 21 33 - - 0.2
26/04:29pm 4.2 -5.1 0.5 77 1.5 WSW 39 61 21 33 - - 0.2
26/04:00pm 3.1 -9.5 0.3 82 1.1 WSW 56 76 30 41 - - 0.2
26/03:31pm 3.5 -10.7 0.7 82 1.2 WSW 65 85 35 46 - - 0.2
26/03:30pm 3.3 -11.3 0.7 83 1.1 WSW 67 85 36 46 - - 0.2
26/03:27pm 3.0 -11.2 0.7 85 0.9 WSW 65 85 35 46 - - 0.2
26/03:22pm 3.0 -10.8 0.9 86 0.9 WSW 63 80 34 43 - - 0.2
26/03:00pm 3.3 -7.9 2.1 92 0.5 WSW 50 70 27 38 - - 0.2
26/02:57pm 3.0 -7.4 2.1 94 0.4 WSW 46 63 25 34 - - 0.2
26/02:55pm 2.8 -8.0 1.9 94 0.4 WSW 48 67 26 36 - - 0.2
26/02:30pm 2.5 -11.2 1.6 94 0.4 WSW 63 87 34 47 - - 0.2
26/02:02pm 2.2 -13.9 1.9 98 0.1 WSW 76 96 41 52 - - 0.2
26/02:00pm 2.3 -13.8 2.2 99 0.0 WSW 76 95 41 51 - - 0.2
26/01:31pm 2.0 -12.8 1.9 99 0.0 WSW 69 87 37 47 - - 0.2
26/01:30pm 2.0 -12.8 1.9 99 0.0 WSW 69 85 37 46 - - 0.2
26/01:00pm 2.0 -12.8 2.0 100 0.0 WSW 69 83 37 45 - - 0.2
26/12:30pm 2.3 -13.0 2.3 100 0.0 WSW 72 96 39 52 - - 0.2
26/12:26pm 2.3 -12.4 2.3 100 0.0 WSW 69 87 37 47 - - 0.2
26/12:00pm 2.1 -11.1 2.1 100 0.0 WSW 61 78 33 42 - - 0.2
26/11:30am 1.5 -13.0 1.5 100 0.0 WSW 67 93 36 50 - - 0.2
26/11:29am 1.5 -12.6 1.5 100 0.0 WSW 65 93 35 50 - - 0.2
26/11:28am 1.5 -12.2 1.5 100 0.0 WSW 63 93 34 50 - - 0.2
26/11:00am 1.6 -10.0 1.6 100 0.0 SW 52 82 28 44 - - 0.2
26/10:51am 1.4 -10.2 1.4 100 0.0 SW 52 82 28 44 - - 0.2
26/10:30am 1.3 -7.9 1.3 100 0.0 WSW 39 63 21 34 - - 0.0
26/10:29am 1.3 -7.5 1.3 100 0.0 WSW 37 63 20 34 - - 0.0
26/10:19am 1.4 -8.2 1.4 100 0.0 WSW 41 56 22 30 - - 0.0
26/10:00am 1.5 -10.9 1.5 100 0.0 WSW 56 76 30 41 - - 0.0
26/09:30am 1.3 -12.5 1.3 100 0.0 WSW 63 82 34 44 - - 0.0
26/09:00am 1.2 -11.4 1.2 100 0.0 WSW 57 80 31 43 - - 0.6
26/08:30am 1.1 -11.0 1.1 100 0.0 WSW 54 78 29 42 - - 0.6
26/08:00am 0.9 -11.2 0.9 100 0.0 WSW 54 74 29 40 - - 0.6
26/07:30am 1.0 -13.2 1.0 100 0.0 WSW 65 91 35 49 - - 0.6
26/07:00am 0.8 -13.8 0.8 100 0.0 WSW 67 95 36 51 - - 0.6
26/06:30am 0.8 -12.7 0.8 100 0.0 WSW 61 85 33 46 - - 0.6
26/06:00am 0.9 -14.6 0.9 100 0.0 WSW 72 98 39 53 - - 0.6
26/05:30am 0.7 -15.2 0.7 100 0.0 W 74 93 40 50 - - 0.6
26/05:00am 0.5 -17.0 0.5 100 0.0 W 82 109 44 59 - - 0.6
26/04:30am 0.4 -17.1 0.4 100 0.0 W 82 113 44 61 - - 0.6
26/04:00am 0.3 -16.5 0.3 100 0.0 W 78 109 42 59 - - 0.6
26/03:40am 0.3 -17.8 0.3 100 0.0 W 85 119 46 64 - - 0.6
26/03:39am 0.2 -17.9 0.2 100 0.0 W 85 119 46 64 - - 0.6
26/03:30am 0.3 -19.3 0.3 100 0.0 W 93 119 50 64 - - 0.4
26/03:00am 0.1 -20.1 0.1 100 0.0 W 96 139 52 75 - - 0.4
26/02:30am 0.3 -19.9 0.3 100 0.0 W 96 135 52 73 - - 0.4
26/02:13am 0.1 -17.6 0.1 100 0.0 W 83 124 45 67 - - 0.4
26/02:00am 0.1 -15.9 0.1 100 0.0 W 74 100 40 54 - - 0.4
26/01:30am -0.1 -17.7 -0.1 100 0.0 W 82 120 44 65 - - 0.4
26/01:23am -0.1 -15.4 -0.1 100 0.0 W 70 104 38 56 - - 0.4
26/01:00am -0.1 -14.4 -0.1 100 0.0 W 65 83 35 45 - - 0.4
26/12:30am -0.4 -15.2 -0.4 100 0.0 W 67 87 36 47 - - 0.4
26/12:01am -0.4 -14.8 -0.4 100 0.0 W 65 91 35 49 - - 0.4
26/12:00am -0.4 -14.4 -0.4 100 0.0 W 63 82 34 44 - - 0.4
 
Date/Time
EDT
Temp
°C
App
Temp
°C
Dew
Point
°C
Rel
Hum
%
Delta-T
°C
Wind Press
QNH
hPa
Press
MSL
hPa
Rain since
9am
mm
Dir  Spd
km/h
Gust
km/h
Spd
kts
Gust
kts
25/11:30pm -0.6 -12.5 -0.6 100 0.0 WNW 52 72 28 39 - - 0.4
25/11:03pm -0.7 -13.6 -0.7 100 0.0 WNW 57 82 31 44 - - 0.4
25/11:00pm -0.7 -13.4 -0.7 100 0.0 WNW 56 70 30 38 - - 0.4
25/10:30pm -1.1 -11.6 -1.1 100 0.0 NW 44 59 24 32 - - 0.4
25/10:00pm -1.2 -13.6 -1.2 100 0.0 WNW 54 70 29 38 - - 0.4
25/09:34pm -1.0 -14.3 -1.0 100 0.0 NW 59 80 32 43 - - 0.4
25/09:30pm -1.0 -14.7 -1.0 100 0.0 NW 61 80 33 43 - - 0.4
25/09:00pm -1.2 -15.3 -1.2 100 0.0 WNW 63 85 34 46 - - 0.4
25/08:35pm -1.3 -16.2 -1.3 100 0.0 WNW 67 89 36 48 - - 0.4
25/08:30pm -1.3 -15.8 -1.3 100 0.0 WNW 65 80 35 43 - - 0.4
25/08:00pm -1.3 -16.8 -1.3 100 0.0 W 70 93 38 50 - - 0.4
25/07:30pm -1.4 -14.8 -1.4 100 0.0 WNW 59 80 32 43 - - 0.4
25/07:05pm -1.5 -16.0 -1.5 100 0.0 WNW 65 87 35 47 - - 0.4
25/07:00pm -1.6 -15.8 -1.6 100 0.0 WNW 63 82 34 44 - - 0.4
25/06:30pm -1.5 -17.0 -1.5 100 0.0 WNW 70 89 38 48 - - 0.4
25/06:06pm -1.2 -15.3 -1.2 100 0.0 WNW 63 82 34 44 - - 0.4
25/06:00pm -1.2 -16.1 -1.2 100 0.0 WNW 67 82 36 44 - - 0.4
25/05:30pm -1.0 -18.8 -1.4 97 0.1 WNW 82 117 44 63 - - 0.4
25/05:26pm -1.1 -17.7 -1.4 98 0.1 WNW 76 117 41 63 - - 0.4
25/05:00pm -0.8 -16.0 -0.8 100 0.0 W 69 91 37 49 - - 0.4
25/04:30pm -0.7 -14.8 -0.7 100 0.0 NW 63 83 34 45 - - 0.4
25/04:00pm -0.4 -13.7 -0.4 100 0.0 WNW 59 80 32 43 - - 0.4
25/03:44pm -0.5 -13.2 -0.5 100 0.0 NW 56 74 30 40 - - 0.4
25/03:30pm -0.3 -11.8 -0.3 100 0.0 WNW 50 69 27 37 - - 0.4
25/03:25pm -0.4 -13.1 -0.4 100 0.0 WNW 56 70 30 38 - - 0.4
25/03:04pm -0.7 -15.9 -0.8 99 0.0 WNW 69 87 37 47 - - 0.4
25/03:00pm -0.8 -16.2 -0.9 99 0.0 WNW 70 87 38 47 - - 0.4
25/02:30pm -0.6 -15.4 -0.6 100 0.0 WNW 67 85 36 46 - - 0.4
25/02:02pm -0.9 -16.1 -1.0 99 0.0 WNW 69 87 37 47 - - 0.4
25/02:00pm -0.8 -16.0 -0.9 99 0.0 WNW 69 87 37 47 - - 0.4
25/01:31pm -0.6 -16.8 -1.0 97 0.1 WNW 74 93 40 50 - - 0.4
25/01:30pm -0.5 -17.1 -0.9 97 0.1 WNW 76 93 41 50 - - 0.4
25/01:00pm -0.4 -17.9 -2.0 89 0.6 WNW 80 104 43 56 - - 0.4
25/12:30pm -0.3 -16.8 -0.7 97 0.1 W 76 104 41 56 - - 0.2
25/12:25pm -0.7 -17.3 -1.0 98 0.1 W 76 98 41 53 - - 0.2
25/12:21pm -0.6 -16.3 -0.6 100 0.0 W 72 96 39 52 - - 0.2
25/12:00pm 0.0 -12.8 0.0 100 0.0 WNW 57 85 31 46 - - 0.2
25/11:37am 0.4 -13.9 0.4 100 0.0 WNW 65 83 35 45 - - 0.2
25/11:30am 0.4 -13.9 0.4 100 0.0 WNW 65 83 35 45 - - 0.2
25/11:00am -0.1 -13.3 -0.1 100 0.0 WNW 59 80 32 43 - - 0.2
25/10:51am -0.1 -12.9 -0.1 100 0.0 NW 57 83 31 45 - - 0.2
25/10:49am 0.0 -12.2 0.0 100 0.0 NW 54 83 29 45 - - 0.2
25/10:30am 1.0 -9.2 1.0 100 0.0 NW 44 67 24 36 - - 0.0
25/10:03am 1.0 -11.5 1.0 100 0.0 NW 56 76 30 41 - - 0.0
25/10:00am 0.9 -11.8 0.9 100 0.0 NW 57 76 31 41 - - 0.0
25/09:32am 0.9 -9.3 0.9 100 0.0 NW 44 67 24 36 - - 0.0
25/09:30am 1.0 -9.0 1.0 100 0.0 NW 43 61 23 33 - - 0.0
25/09:00am 1.1 -10.6 1.1 100 0.0 NW 52 74 28 40 - - 9.8
25/08:30am 1.2 -11.2 1.2 100 0.0 NW 56 83 30 45 - - 9.8
25/08:00am 1.4 -11.0 1.3 99 0.0 NW 56 80 30 43 - - 9.8
25/07:30am 1.7 -10.7 1.3 97 0.2 NW 56 78 30 42 - - 9.8
25/07:00am 1.9 -11.1 1.2 95 0.3 NW 59 83 32 45 - - 9.8
25/06:30am 2.4 -11.6 2.0 97 0.2 NW 65 83 35 45 - - 9.8
25/06:00am 3.4 -11.2 2.8 96 0.3 NW 69 96 37 52 - - 9.8
25/05:30am 3.9 -11.5 3.8 99 0.0 NNW 74 96 40 52 - - 9.8
25/05:19am 4.0 -12.1 4.0 100 0.0 NNW 78 117 42 63 - - 9.8
25/05:00am 4.4 -9.2 4.4 100 0.0 NW 65 93 35 50 - - 9.8
25/04:30am 5.4 -8.4 5.4 100 0.0 NW 67 98 36 53 - - 9.8
25/04:00am 6.1 -6.8 6.1 100 0.0 NW 63 83 34 45 - - 9.8
25/03:30am 7.8 -6.0 7.8 100 0.0 NW 70 91 38 49 - - 9.6
25/03:27am 7.9 -4.6 7.9 100 0.0 NW 63 95 34 51 - - 9.6
25/03:25am 8.3 -3.7 8.3 100 0.0 NNW 61 95 33 51 - - 9.6
25/03:00am 9.6 -2.0 9.6 100 0.0 N 61 95 33 51 - - 7.8
25/02:53am 9.7 -1.5 9.7 100 0.0 N 59 95 32 51 - - 7.8
25/02:30am 9.9 -0.7 9.9 100 0.0 N 56 76 30 41 - - 7.6
25/02:00am 9.5 -2.2 9.5 100 0.0 N 61 80 33 43 - - 5.2
25/01:30am 9.2 -2.9 9.2 100 0.0 N 63 85 34 46 - - 3.6
25/01:00am 9.0 -2.4 9.0 100 0.0 N 59 85 32 46 - - 1.0
25/12:30am 9.1 -4.4 9.1 100 0.0 N 70 91 38 49 - - 0.6
25/12:09am 8.9 -2.9 8.9 100 0.0 N 61 82 33 44 - - 0.4
25/12:00am 8.9 -2.9 8.9 100 0.0 N 61 76 33 41 - - 0.4
 
Date/Time
EDT
Temp
°C
App
Temp
°C
Dew
Point
°C
Rel
Hum
%
Delta-T
°C
Wind Press
QNH
hPa
Press
MSL
hPa
Rain since
9am
mm
Dir  Spd
km/h
Gust
km/h
Spd
kts
Gust
kts
24/11:30pm 9.3 -2.4 9.3 100 0.0 N 61 85 33 46 - - 0.2
24/11:10pm 9.3 -2.8 9.3 100 0.0 N 63 85 34 46 - - 0.2
24/11:00pm 9.2 -1.8 9.2 100 0.0 N 57 72 31 39 - - 0.2
24/10:37pm 9.0 0.4 9.0 100 0.0 N 44 65 24 35 - - 0.2
24/10:30pm 8.9 1.3 8.9 100 0.0 N 39 52 21 28 - - 0.2
24/10:00pm 8.8 2.2 8.4 97 0.2 N 33 48 18 26 - - 0.2
24/09:30pm 9.6 2.9 7.5 87 1.1 N 32 43 17 23 - - 0.2
24/09:00pm 9.8 2.9 7.1 83 1.4 NNW 33 46 18 25 - - 0.2
24/08:30pm 10.2 2.0 6.4 77 1.9 NNW 39 61 21 33 - - 0.2
24/08:00pm 10.7 2.3 5.7 71 2.5 NNW 39 61 21 33 - - 0.2
24/07:30pm 10.9 1.6 5.2 68 2.8 NNW 43 63 23 34 - - 0.2
24/07:00pm 11.0 3.7 4.7 65 3.1 NNW 32 61 17 33 - - 0.2
24/06:36pm 11.2 4.0 5.1 66 3.0 NNW 32 52 17 28 - - 0.2
24/06:30pm 11.3 4.2 5.6 68 2.8 NNW 32 48 17 26 - - 0.2
24/06:23pm 11.8 5.5 5.7 66 3.1 NNW 28 46 15 25 - - 0.2
24/06:00pm 12.1 5.1 6.2 67 3.0 N 32 44 17 24 - - 0.2
24/05:30pm 12.8 7.0 6.4 65 3.3 NNW 26 43 14 23 - - 0.2
24/05:00pm 11.2 6.8 8.8 85 1.3 N 22 33 12 18 - - 0.2
24/04:30pm 11.2 7.8 9.3 88 1.0 N 17 24 9 13 - - 0.2
24/04:00pm 12.1 8.8 8.2 77 2.1 N 15 24 8 13 - - 0.2
24/03:30pm 12.7 8.1 8.2 74 2.4 N 22 32 12 17 - - 0.2
24/03:00pm 13.5 9.8 9.4 76 2.2 NNE 19 26 10 14 - - 0.2
24/02:30pm 12.8 9.2 9.8 82 1.6 NNE 19 26 10 14 - - 0.0
24/02:00pm 12.4 8.5 9.4 82 1.6 N 20 32 11 17 - - 0.0
24/01:30pm 11.3 5.4 7.6 78 1.9 N 28 37 15 20 - - 0.0
24/01:00pm 11.9 7.1 8.9 82 1.6 N 24 33 13 18 - - 0.0
24/12:30pm 9.3 4.8 8.4 94 0.5 N 22 30 12 16 - - 0.0
24/12:00pm 8.9 5.0 8.5 97 0.2 N 19 26 10 14 - - 0.0
24/11:30am 9.3 5.6 8.1 92 0.6 N 17 28 9 15 - - 0.0
24/11:00am 9.4 7.0 8.5 94 0.5 NNE 11 17 6 9 - - 0.0
24/10:30am 10.3 8.0 7.4 82 1.5 NNW 9 20 5 11 - - 0.0
24/10:00am 9.7 6.6 7.1 84 1.3 WNW 13 20 7 11 - - 0.0
24/09:30am 8.9 3.8 6.0 82 1.4 W 22 30 12 16 - - 0.0
24/09:00am 8.1 1.8 5.9 86 1.1 WSW 28 33 15 18 - - 1.4
24/08:30am 7.9 2.5 7.8 99 0.1 W 26 35 14 19 - - 1.4
24/08:00am 7.4 2.2 7.4 100 0.0 W 24 35 13 19 - - 1.4
24/07:30am 7.3 2.1 7.3 100 0.0 WNW 24 33 13 18 - - 1.4
24/07:00am 7.1 1.5 7.1 100 0.0 WNW 26 33 14 18 - - 1.4
24/06:30am 7.0 -0.7 7.0 100 0.0 W 37 44 20 24 - - 1.4
24/06:00am 7.2 -0.6 6.8 97 0.2 W 37 50 20 27 - - 1.4
24/05:30am 7.4 -0.2 6.0 91 0.7 W 35 50 19 27 - - 1.4
24/05:00am 7.5 0.6 6.3 92 0.6 W 32 44 17 24 - - 1.4
24/04:30am 7.8 2.3 7.4 97 0.2 WSW 26 35 14 19 - - 1.4
24/04:00am 8.3 2.7 7.2 93 0.6 W 26 35 14 19 - - 1.4
24/03:30am 8.4 1.7 7.2 92 0.6 W 32 41 17 22 - - 1.4
24/03:00am 8.7 2.9 7.8 94 0.5 W 28 41 15 22 - - 1.4
24/02:30am 8.7 1.7 8.6 99 0.1 W 35 44 19 24 - - 1.4
24/02:00am 9.0 2.4 8.6 97 0.2 W 33 44 18 24 - - 1.4
24/01:30am 9.3 2.8 8.8 97 0.3 W 33 43 18 23 - - 1.4
24/01:00am 9.4 2.6 9.4 100 0.0 W 35 44 19 24 - - 1.4
24/12:30am 10.2 5.4 10.2 100 0.0 WNW 26 37 14 20 - - 1.4
24/12:00am 10.9 7.4 10.9 100 0.0 WNW 20 28 11 15 - - 1.4
 
Date/Time
EDT
Temp
°C
App
Temp
°C
Dew
Point
°C
Rel
Hum
%
Delta-T
°C
Wind Press
QNH
hPa
Press
MSL
hPa
Rain since
9am
mm
Dir  Spd
km/h
Gust
km/h
Spd
kts
Gust
kts
23/11:30pm 11.0 5.3 11.0 100 0.0 WNW 32 43 17 23 - - 1.2
23/11:00pm 11.0 4.3 11.0 100 0.0 NW 37 54 20 29 - - 1.2
23/10:57pm 11.1 4.8 11.1 100 0.0 NW 35 54 19 29 - - 1.2
23/10:30pm 11.0 3.0 11.0 100 0.0 NW 44 59 24 32 - - 1.0
23/10:00pm 11.1 3.1 11.1 100 0.0 NNW 44 56 24 30 - - 1.0
23/09:30pm 11.2 2.8 11.2 100 0.0 NW 46 57 25 31 - - 1.0
23/09:00pm 11.3 3.0 11.3 100 0.0 NW 46 61 25 33 - - 1.0
23/08:30pm 11.5 3.8 11.5 100 0.0 NW 43 56 23 30 - - 1.0
23/08:00pm 11.7 3.9 11.7 100 0.0 NW 44 54 24 29 - - 1.0
23/07:30pm 12.1 3.9 11.6 97 0.3 NW 46 56 25 30 - - 1.0
23/07:00pm 12.3 4.0 11.5 95 0.5 NNW 46 56 25 30 - - 1.0
23/06:30pm 12.5 4.2 11.4 93 0.6 NNW 46 56 25 30 - - 1.0
23/06:00pm 12.9 5.0 11.3 90 0.9 NNW 44 56 24 30 - - 1.0
23/05:30pm 12.9 3.3 10.8 87 1.2 NNW 52 59 28 32 - - 1.0

Other formats

Comma delimited format used in spreadsheet applications
http://www.bom.gov.au/fwo/IDT60801/IDT60801.95979.axf

JavaScript Object Notation format (JSON) in row-major order
http://www.bom.gov.au/fwo/IDT60801/IDT60801.95979.json

Data quality

Most of these data are generated automatically and are frequently updated. Quality checks on data are not normally performed. It is possible for incorrect values to appear. Refer to information at About Latest Weather Observations and please check the disclaimer before using these data.